Time;durP1;ratioP1;P1;durP2;ratioP2;P2;SDS_P1;SDS_P2;PMS_P1;PMS_P2;Temp;Humidity;BMP_temperature;BMP_pressure;BME280_temperature;BME280_humidity;BME280_pressure;Samples;Min_cycle;Max_cycle;Signal;HPM_P1;HPM_P2
2023/06/04 00:02:13;;;;;;;12.30;5.30;;;16.00;99.90;;;;;;5132467;27;20971;-66
2023/06/04 00:04:39;;;;;;;6.03;4.53;;;16.00;99.90;;;;;;5132455;27;20618;-66
2023/06/04 00:07:05;;;;;;;14.70;5.03;;;16.20;99.90;;;;;;5132290;27;20585;-65
2023/06/04 00:09:31;;;;;;;6.30;5.20;;;16.30;99.90;;;;;;5132174;27;20219;-64
2023/06/04 00:11:56;;;;;;;6.40;4.93;;;16.30;99.90;;;;;;5131472;27;20785;-65
2023/06/04 00:14:23;;;;;;;5.93;4.60;;;16.20;99.80;;;;;;5132159;27;20203;-65
2023/06/04 00:16:49;;;;;;;10.67;5.13;;;16.20;99.90;;;;;;5132186;27;20210;-65
2023/06/04 00:19:14;;;;;;;6.97;4.10;;;16.20;99.40;;;;;;5131946;27;20477;-65
2023/06/04 00:21:40;;;;;;;7.90;4.40;;;16.20;99.80;;;;;;5132137;27;20270;-65
2023/06/04 00:24:06;;;;;;;7.23;4.60;;;16.20;98.80;;;;;;5132503;27;20188;-65
2023/06/04 00:26:32;;;;;;;15.73;4.90;;;16.00;99.90;;;;;;5132186;27;20190;-65
2023/06/04 00:28:57;;;;;;;7.17;4.63;;;15.90;99.90;;;;;;5131772;27;20461;-66
2023/06/04 00:31:23;;;;;;;11.73;6.17;;;15.80;99.90;;;;;;5131885;27;20180;-66
2023/06/04 00:33:49;;;;;;;8.63;6.30;;;15.80;99.90;;;;;;5131743;27;20179;-66
2023/06/04 00:36:15;;;;;;;7.93;5.57;;;15.50;99.90;;;;;;5131713;27;20409;-66
2023/06/04 00:38:40;;;;;;;10.13;6.90;;;15.40;99.90;;;;;;5131651;27;20463;-66
2023/06/04 00:41:06;;;;;;;13.20;6.20;;;15.30;99.90;;;;;;5131341;27;20240;-66
2023/06/04 00:43:32;;;;;;;12.70;7.27;;;15.20;99.90;;;;;;5131616;27;20206;-66
2023/06/04 00:45:58;;;;;;;11.30;6.63;;;15.10;99.90;;;;;;5113049;27;20605;-66
2023/06/04 00:48:27;;;;;;;9.80;6.07;;;15.00;99.90;;;;;;5131577;27;20448;-65
2023/06/04 00:50:53;;;;;;;9.27;6.70;;;15.10;99.90;;;;;;5131428;27;20431;-66
2023/06/04 00:53:19;;;;;;;9.00;5.83;;;15.00;99.90;;;;;;5131610;27;20773;-66
2023/06/04 00:55:45;;;;;;;12.00;6.60;;;14.90;99.90;;;;;;5131506;27;20415;-65
2023/06/04 00:58:12;;;;;;;8.87;5.70;;;14.90;99.90;;;;;;5131530;27;20433;-65
2023/06/04 01:00:38;;;;;;;12.63;6.93;;;14.80;99.90;;;;;;5131563;27;20266;-65
2023/06/04 01:03:10;;;;;;;8.20;6.70;;;14.80;99.90;;;;;;5131423;27;20419;-66
2023/06/04 01:05:55;;;;;;;10.13;6.67;;;14.80;99.90;;;;;;5131412;27;20451;-66
2023/06/04 01:08:21;;;;;;;12.03;6.47;;;14.70;99.90;;;;;;5131522;27;20431;-65
2023/06/04 01:10:52;;;;;;;7.10;5.70;;;14.60;99.90;;;;;;5131111;27;20870;-66
2023/06/04 01:13:17;;;;;;;7.53;5.87;;;14.50;99.90;;;;;;5112739;27;20455;-66
2023/06/04 01:15:43;;;;;;;8.73;6.47;;;14.30;99.90;;;;;;5131275;27;20488;-65
2023/06/04 01:18:09;;;;;;;9.17;5.80;;;14.20;99.90;;;;;;5131200;27;20224;-66
2023/06/04 01:20:47;;;;;;;9.50;5.70;;;14.20;99.90;;;;;;5131120;27;20829;-65
2023/06/04 01:23:45;;;;;;;11.83;6.30;;;14.20;99.90;;;;;;5130097;27;20424;-65
2023/06/04 01:26:12;;;;;;;9.23;6.60;;;14.30;99.90;;;;;;5100136;27;20431;-65
2023/06/04 01:28:38;;;;;;;10.07;6.30;;;14.20;99.90;;;;;;5112565;27;20434;-66
2023/06/04 01:31:08;;;;;;;8.63;5.60;;;14.20;99.90;;;;;;5131010;27;20432;-66
2023/06/04 01:33:34;;;;;;;11.00;5.70;;;14.20;99.90;;;;;;5130887;27;20408;-65
2023/06/04 01:36:00;;;;;;;8.40;5.63;;;14.10;99.90;;;;;;5131031;27;20415;-64
2023/06/04 01:38:26;;;;;;;14.87;5.50;;;13.90;99.90;;;;;;5130762;27;20434;-65
2023/06/04 01:40:56;;;;;;;8.50;5.53;;;13.90;99.90;;;;;;5130961;27;20411;-65
2023/06/04 01:43:28;;;;;;;8.20;5.70;;;13.90;99.90;;;;;;5003685;28;20569;-66
2023/06/04 01:45:56;;;;;;;13.67;4.83;;;13.80;99.90;;;;;;5003816;28;20992;-66
2023/06/04 01:48:22;;;;;;;4.60;4.20;;;13.70;99.90;;;;;;5003634;28;20965;-65
2023/06/04 01:50:47;;;;;;;9.53;4.90;;;13.70;99.90;;;;;;5003608;28;20429;-65
2023/06/04 01:53:13;;;;;;;11.33;4.57;;;13.60;99.90;;;;;;5003734;28;20574;-65
2023/06/04 01:55:38;;;;;;;5.73;4.00;;;13.60;99.90;;;;;;5003778;28;20192;-65
2023/06/04 01:58:04;;;;;;;7.47;4.40;;;13.50;99.90;;;;;;5002600;28;20701;-65
2023/06/04 02:00:30;;;;;;;5.67;4.10;;;13.50;99.90;;;;;;5004098;28;20221;-65
2023/06/04 02:02:56;;;;;;;6.03;4.00;;;13.50;99.90;;;;;;5003843;28;20511;-64
2023/06/04 02:05:22;;;;;;;8.07;4.37;;;13.50;99.90;;;;;;5002644;28;20214;-65
2023/06/04 02:07:48;;;;;;;16.47;5.23;;;13.50;99.90;;;;;;5003819;28;20987;-65
2023/06/04 02:10:18;;;;;;;7.43;4.77;;;13.40;99.90;;;;;;5004028;28;20424;-64
2023/06/04 02:13:06;;;;;;;6.90;4.40;;;13.40;99.90;;;;;;5004236;28;20558;-65
2023/06/04 02:15:32;;;;;;;6.63;4.80;;;13.40;99.90;;;;;;5003324;28;20420;-65
2023/06/04 02:18:12;;;;;;;6.50;4.50;;;13.20;99.90;;;;;;5003658;28;20451;-65
2023/06/04 02:20:38;;;;;;;9.17;4.80;;;13.20;99.90;;;;;;5003435;28;20495;-64
2023/06/04 02:23:04;;;;;;;6.20;3.80;;;13.20;99.90;;;;;;5002106;28;20624;-64
2023/06/04 02:25:29;;;;;;;10.53;4.43;;;13.00;99.90;;;;;;5003288;28;20638;-65
2023/06/04 02:27:55;;;;;;;8.67;4.17;;;13.00;99.90;;;;;;5003422;28;20209;-65
2023/06/04 02:30:20;;;;;;;4.20;3.70;;;13.00;99.90;;;;;;5003275;28;20186;-65
2023/06/04 02:32:50;;;;;;;6.20;4.40;;;12.90;99.90;;;;;;5003092;28;20662;-65
2023/06/04 02:35:17;;;;;;;4.67;3.90;;;12.90;99.90;;;;;;5003102;28;20204;-65
2023/06/04 02:37:43;;;;;;;8.80;4.50;;;12.90;99.90;;;;;;5003021;28;20448;-65
2023/06/04 02:40:10;;;;;;;9.60;4.70;;;12.90;99.90;;;;;;5001751;28;20415;-65
2023/06/04 02:42:35;;;;;;;8.03;4.20;;;12.80;99.90;;;;;;5002511;28;20475;-65
2023/06/04 02:45:01;;;;;;;7.70;3.40;;;12.80;99.90;;;;;;5002569;28;20477;-65
2023/06/04 02:47:27;;;;;;;7.87;3.57;;;12.80;99.90;;;;;;5002480;28;20193;-64
2023/06/04 02:49:53;;;;;;;5.37;3.40;;;12.50;99.90;;;;;;5002771;28;20200;-65
2023/06/04 02:52:18;;;;;;;5.03;3.27;;;12.50;99.90;;;;;;5002831;28;20424;-65
2023/06/04 02:54:44;;;;;;;6.20;3.67;;;12.50;99.90;;;;;;4990508;28;20233;-65
2023/06/04 02:57:09;;;;;;;4.40;3.70;;;12.50;99.90;;;;;;4989963;28;20189;-65
2023/06/04 02:59:36;;;;;;;5.20;3.40;;;12.40;99.90;;;;;;4988185;28;20216;-65
2023/06/04 03:02:02;;;;;;;5.53;3.50;;;12.50;99.90;;;;;;4989669;28;20206;-65
2023/06/04 03:04:33;;;;;;;5.23;3.50;;;12.50;99.90;;;;;;4989570;28;20439;-65
2023/06/04 03:07:00;;;;;;;7.77;3.10;;;12.40;99.90;;;;;;4989622;28;20851;-65
2023/06/04 03:09:26;;;;;;;5.80;2.60;;;12.40;99.90;;;;;;4989462;28;20444;-64
2023/06/04 03:11:51;;;;;;;5.73;3.10;;;12.40;99.90;;;;;;4989546;28;20424;-64
2023/06/04 03:14:18;;;;;;;5.80;3.13;;;12.40;99.90;;;;;;4989347;28;20233;-64
2023/06/04 03:16:45;;;;;;;6.93;3.20;;;12.40;99.90;;;;;;4989182;28;20189;-65
2023/06/04 03:19:11;;;;;;;9.00;3.00;;;12.30;99.90;;;;;;4987587;28;20452;-66
2023/06/04 03:21:39;;;;;;;7.13;3.53;;;12.30;99.90;;;;;;4988685;28;20464;-66
2023/06/04 03:24:06;;;;;;;6.87;3.50;;;12.30;99.90;;;;;;4988719;28;20424;-66
2023/06/04 03:26:32;;;;;;;5.43;3.37;;;12.20;99.90;;;;;;4988594;28;20429;-66
2023/06/04 03:28:58;;;;;;;4.73;3.20;;;12.20;99.90;;;;;;4988492;28;20498;-66
2023/06/04 03:31:24;;;;;;;3.93;2.77;;;12.20;99.90;;;;;;4988419;28;20193;-66
2023/06/04 03:33:49;;;;;;;7.03;3.30;;;12.30;99.90;;;;;;4988315;28;20433;-66
2023/06/04 03:36:16;;;;;;;3.17;2.87;;;12.30;99.90;;;;;;4988469;28;20242;-66
2023/06/04 03:38:41;;;;;;;5.47;3.20;;;12.20;99.90;;;;;;4988388;28;20593;-66
2023/06/04 03:41:07;;;;;;;4.10;3.20;;;12.20;99.90;;;;;;4988155;28;20432;-66
2023/06/04 03:43:32;;;;;;;5.70;3.07;;;12.20;99.90;;;;;;4988240;28;20711;-66
2023/06/04 03:45:58;;;;;;;4.37;3.23;;;12.20;99.90;;;;;;4988138;28;20566;-66
2023/06/04 03:48:24;;;;;;;3.03;2.73;;;12.10;99.90;;;;;;4988054;28;20205;-66
2023/06/04 03:50:49;;;;;;;9.93;2.93;;;12.10;99.90;;;;;;4988103;28;20201;-66
2023/06/04 03:53:15;;;;;;;4.63;2.87;;;12.10;99.90;;;;;;4987969;28;20281;-66
2023/06/04 03:55:40;;;;;;;5.60;3.00;;;12.10;99.90;;;;;;4987998;28;20258;-66
2023/06/04 03:58:09;;;;;;;4.83;3.00;;;12.10;99.90;;;;;;4987904;28;20246;-66
2023/06/04 04:00:34;;;;;;;4.40;2.50;;;12.10;99.90;;;;;;4988049;28;20242;-66
2023/06/04 04:03:00;;;;;;;5.93;3.07;;;12.10;99.90;;;;;;4987600;28;20472;-66
2023/06/04 04:05:26;;;;;;;6.63;3.10;;;12.10;99.90;;;;;;4986533;28;20268;-66
2023/06/04 04:07:51;;;;;;;8.87;2.83;;;12.20;99.90;;;;;;4987560;28;20759;-66
2023/06/04 04:10:17;;;;;;;4.23;3.03;;;12.40;99.90;;;;;;4986114;28;20228;-66
2023/06/04 04:12:42;;;;;;;3.80;3.10;;;12.30;99.90;;;;;;4987689;28;20194;-66
2023/06/04 04:15:08;;;;;;;5.23;2.60;;;12.50;99.90;;;;;;4987981;28;20194;-66
2023/06/04 04:17:34;;;;;;;12.63;2.93;;;12.40;99.90;;;;;;4987288;28;20193;-66
2023/06/04 04:19:59;;;;;;;4.40;2.87;;;12.40;99.90;;;;;;4987771;28;21014;-66
2023/06/04 04:22:25;;;;;;;4.03;2.73;;;12.40;99.90;;;;;;4987422;28;20224;-66
2023/06/04 04:24:50;;;;;;;3.63;2.30;;;12.40;99.90;;;;;;4987486;28;20598;-66
2023/06/04 04:27:16;;;;;;;8.00;2.77;;;12.40;99.90;;;;;;4987827;28;20197;-66
2023/06/04 04:29:43;;;;;;;4.20;3.00;;;12.40;99.90;;;;;;4987462;28;20189;-65
2023/06/04 04:32:12;;;;;;;3.40;2.57;;;12.60;99.90;;;;;;4987253;28;20278;-66
2023/06/04 04:34:43;;;;;;;6.10;3.43;;;12.60;99.90;;;;;;4987359;28;20420;-66
2023/06/04 04:37:09;;;;;;;6.27;3.00;;;12.70;99.90;;;;;;4987438;28;20425;-66
2023/06/04 04:39:35;;;;;;;3.67;3.00;;;12.90;99.90;;;;;;4986999;28;20475;-66
2023/06/04 04:42:02;;;;;;;4.17;3.20;;;12.80;99.90;;;;;;4986659;28;20492;-66
2023/06/04 04:44:28;;;;;;;3.50;3.20;;;12.90;99.90;;;;;;4986985;28;20421;-65
2023/06/04 04:46:53;;;;;;;4.53;2.93;;;12.90;99.90;;;;;;4987049;28;20420;-66
2023/06/04 04:49:19;;;;;;;4.70;2.70;;;13.00;99.90;;;;;;4987138;28;20210;-66
2023/06/04 04:51:45;;;;;;;4.20;3.00;;;13.20;99.90;;;;;;4987128;28;20202;-66
2023/06/04 04:54:10;;;;;;;5.03;2.70;;;13.20;99.90;;;;;;4987100;28;20429;-65
2023/06/04 04:56:36;;;;;;;3.73;2.73;;;13.30;99.90;;;;;;4986914;28;20193;-65
2023/06/04 04:59:02;;;;;;;5.60;3.33;;;13.40;99.90;;;;;;4987020;28;20209;-66
2023/06/04 05:01:27;;;;;;;5.90;2.70;;;13.60;99.90;;;;;;4986869;28;20618;-66
2023/06/04 05:03:53;;;;;;;4.93;2.93;;;13.60;99.90;;;;;;4986849;28;20806;-65
2023/06/04 05:06:19;;;;;;;3.90;2.40;;;13.70;99.90;;;;;;4987066;28;20194;-66
2023/06/04 05:08:45;;;;;;;5.20;3.00;;;13.70;99.90;;;;;;4986722;28;20205;-66
2023/06/04 05:11:10;;;;;;;5.63;2.60;;;13.90;99.90;;;;;;4986868;28;20190;-65
2023/06/04 05:13:36;;;;;;;3.20;2.80;;;14.10;99.90;;;;;;4986873;28;20425;-65
2023/06/04 05:16:06;;;;;;;3.50;2.40;;;14.30;99.90;;;;;;4986561;28;20651;-65
2023/06/04 05:18:40;;;;;;;11.67;3.43;;;14.30;99.90;;;;;;4986589;28;20670;-66
2023/06/04 05:21:06;;;;;;;9.87;2.67;;;14.50;99.90;;;;;;4986711;28;20501;-66
2023/06/04 05:23:34;;;;;;;4.40;2.97;;;14.60;99.90;;;;;;4986522;28;20476;-66
2023/06/04 05:26:01;;;;;;;4.53;3.20;;;14.80;99.90;;;;;;4986696;28;20415;-66
2023/06/04 05:28:27;;;;;;;4.43;3.33;;;14.90;99.90;;;;;;4986512;28;20442;-65
2023/06/04 05:30:58;;;;;;;5.00;2.80;;;15.10;99.90;;;;;;4985058;28;20435;-66
2023/06/04 05:33:24;;;;;;;4.47;3.00;;;15.20;99.90;;;;;;4986631;28;20460;-66
2023/06/04 05:35:51;;;;;;;4.60;2.83;;;15.40;99.90;;;;;;4986721;28;20436;-66
2023/06/04 05:38:20;;;;;;;6.87;2.93;;;15.60;99.90;;;;;;4986401;28;20454;-66
2023/06/04 05:40:46;;;;;;;4.77;2.80;;;15.70;99.90;;;;;;4986491;28;20434;-66
2023/06/04 05:43:12;;;;;;;4.70;3.37;;;15.70;99.90;;;;;;4986478;28;20564;-66
2023/06/04 05:45:38;;;;;;;6.23;3.30;;;15.80;99.90;;;;;;4986330;28;20518;-66
2023/06/04 05:48:05;;;;;;;4.67;2.83;;;15.90;99.90;;;;;;4986366;28;20441;-67
2023/06/04 05:50:31;;;;;;;4.80;3.57;;;16.00;99.90;;;;;;4986354;28;20266;-66
2023/06/04 05:52:56;;;;;;;3.50;3.20;;;16.00;99.90;;;;;;4986518;28;20546;-64
2023/06/04 05:55:23;;;;;;;4.80;3.10;;;16.10;99.90;;;;;;4985145;28;20465;-66
2023/06/04 05:57:51;;;;;;;3.63;2.97;;;16.10;99.90;;;;;;4986309;28;20720;-66
2023/06/04 06:00:17;;;;;;;6.17;3.87;;;16.10;99.90;;;;;;4985057;28;20593;-66
2023/06/04 06:02:43;;;;;;;4.10;3.70;;;16.30;99.90;;;;;;4986104;28;20473;-66
2023/06/04 06:05:09;;;;;;;6.77;3.80;;;16.30;99.90;;;;;;4986353;28;20429;-66
2023/06/04 06:07:35;;;;;;;5.87;4.40;;;16.40;99.90;;;;;;4986071;28;21072;-66
2023/06/04 06:10:01;;;;;;;4.90;4.27;;;16.70;99.90;;;;;;4986174;28;20204;-66
2023/06/04 06:12:27;;;;;;;9.23;4.23;;;16.70;99.90;;;;;;4986346;28;21085;-66
2023/06/04 06:14:52;;;;;;;6.93;3.60;;;16.70;99.90;;;;;;4986257;28;20529;-66
2023/06/04 06:17:18;;;;;;;5.80;3.73;;;16.90;99.90;;;;;;4986136;28;20297;-66
2023/06/04 06:19:44;;;;;;;6.80;4.10;;;17.00;99.90;;;;;;4986144;28;20239;-66
2023/06/04 06:22:10;;;;;;;7.57;4.60;;;17.10;99.90;;;;;;4986066;28;20716;-65
2023/06/04 06:24:36;;;;;;;7.20;3.97;;;17.20;99.90;;;;;;4986167;28;20436;-65
2023/06/04 06:27:01;;;;;;;5.00;3.63;;;17.20;99.90;;;;;;4984697;28;20708;-66
2023/06/04 06:29:27;;;;;;;5.17;3.80;;;17.30;99.80;;;;;;4988460;28;20578;-66
2023/06/04 06:31:52;;;;;;;5.57;3.20;;;17.40;99.60;;;;;;4990061;28;20213;-65
2023/06/04 06:34:18;;;;;;;4.30;3.50;;;17.40;98.10;;;;;;4990086;28;20566;-65
2023/06/04 06:36:44;;;;;;;4.10;3.27;;;17.50;98.60;;;;;;4989912;28;20282;-66
2023/06/04 06:39:10;;;;;;;4.70;3.10;;;17.50;96.90;;;;;;4989919;28;21052;-66
2023/06/04 06:41:38;;;;;;;6.10;3.20;;;17.80;96.10;;;;;;4989647;28;20613;-66
2023/06/04 06:44:04;;;;;;;7.57;4.00;;;17.70;95.50;;;;;;4989886;28;20607;-66
2023/06/04 06:46:29;;;;;;;4.20;3.40;;;17.90;96.30;;;;;;4989969;28;21258;-66
2023/06/04 06:48:55;;;;;;;5.13;3.30;;;18.00;95.60;;;;;;4989882;28;20442;-65
2023/06/04 06:51:21;;;;;;;7.13;3.47;;;18.10;94.60;;;;;;4989692;28;20691;-66
2023/06/04 06:53:46;;;;;;;8.00;3.83;;;18.10;95.60;;;;;;4989561;28;20182;-66
2023/06/04 06:56:14;;;;;;;7.27;3.80;;;18.20;94.60;;;;;;4989193;28;20755;-65
2023/06/04 06:58:40;;;;;;;7.40;3.23;;;18.20;94.60;;;;;;4988971;28;20208;-66
2023/06/04 07:01:06;;;;;;;8.90;3.60;;;18.20;94.50;;;;;;4989085;28;20920;-67
2023/06/04 07:03:31;;;;;;;6.80;3.90;;;18.50;95.50;;;;;;4987670;28;20258;-66
2023/06/04 07:05:57;;;;;;;4.13;3.13;;;18.50;95.00;;;;;;4989144;28;20182;-65
2023/06/04 07:08:23;;;;;;;7.43;3.80;;;18.50;94.30;;;;;;4988403;28;20441;-65
2023/06/04 07:10:48;;;;;;;8.90;3.30;;;18.50;93.20;;;;;;4988168;28;20564;-66
2023/06/04 07:13:14;;;;;;;14.63;4.10;;;18.50;93.50;;;;;;4988024;28;20818;-65
2023/06/04 07:15:39;;;;;;;6.10;3.60;;;18.50;92.70;;;;;;4987811;28;20190;-65
2023/06/04 07:18:05;;;;;;;3.93;3.07;;;18.60;92.20;;;;;;4987847;28;20283;-65
2023/06/04 07:20:31;;;;;;;9.80;3.53;;;18.70;94.30;;;;;;4988059;28;20199;-65
2023/06/04 07:22:56;;;;;;;3.67;2.70;;;18.80;94.70;;;;;;4986462;28;20275;-66
2023/06/04 07:25:23;;;;;;;5.23;3.80;;;18.90;95.70;;;;;;4988221;28;20527;-65
2023/06/04 07:27:52;;;;;;;3.90;3.10;;;19.00;95.70;;;;;;4987764;28;20212;-64
2023/06/04 07:30:18;;;;;;;4.50;3.77;;;19.10;96.90;;;;;;4987951;28;20433;-65
2023/06/04 07:32:50;;;;;;;3.70;2.90;;;19.00;96.40;;;;;;4987839;28;20417;-65
2023/06/04 07:35:16;;;;;;;5.07;4.00;;;19.10;97.60;;;;;;4987910;28;20476;-65
2023/06/04 07:37:44;;;;;;;2.80;2.60;;;19.10;96.90;;;;;;4987749;28;20437;-66
2023/06/04 07:40:11;;;;;;;5.60;4.10;;;19.20;97.20;;;;;;4989523;28;20427;-65
2023/06/04 07:42:37;;;;;;;7.80;3.47;;;19.30;97.30;;;;;;4987590;28;20484;-66
2023/06/04 07:45:03;;;;;;;16.07;4.13;;;19.30;96.80;;;;;;4987432;28;21265;-64
2023/06/04 07:47:29;;;;;;;12.60;3.60;;;19.30;96.50;;;;;;4987372;28;20189;-65
2023/06/04 07:49:54;;;;;;;11.63;3.73;;;19.50;96.90;;;;;;4987606;28;21256;-65
2023/06/04 07:52:20;;;;;;;6.80;3.50;;;19.60;95.90;;;;;;4987626;28;20190;-66
2023/06/04 07:54:45;;;;;;;10.23;3.43;;;19.50;94.90;;;;;;4987474;28;20572;-67
2023/06/04 07:57:11;;;;;;;4.70;2.97;;;19.60;95.50;;;;;;4985980;28;20205;-65
2023/06/04 07:59:37;;;;;;;8.63;3.40;;;19.80;96.10;;;;;;4987326;28;20209;-65
2023/06/04 08:02:02;;;;;;;5.30;3.20;;;19.90;94.60;;;;;;4987346;28;20693;-66
2023/06/04 08:04:28;;;;;;;6.10;3.47;;;20.00;95.00;;;;;;4987303;28;20189;-66
2023/06/04 08:06:55;;;;;;;4.53;3.00;;;20.20;94.40;;;;;;4987250;28;20189;-66
2023/06/04 08:09:20;;;;;;;5.50;3.03;;;20.40;94.60;;;;;;4987194;28;20201;-66
2023/06/04 08:11:46;;;;;;;9.00;3.20;;;20.40;93.60;;;;;;4986980;28;20440;-65
2023/06/04 08:14:12;;;;;;;6.13;2.87;;;20.60;93.40;;;;;;4986581;28;20213;-65
2023/06/04 08:16:38;;;;;;;6.67;3.07;;;20.70;92.70;;;;;;4986357;28;20603;-65
2023/06/04 08:19:04;;;;;;;5.57;3.30;;;20.70;92.60;;;;;;4986141;28;20445;-65
2023/06/04 08:21:30;;;;;;;4.70;3.10;;;20.80;92.30;;;;;;4986039;28;20436;-65
2023/06/04 08:23:56;;;;;;;5.73;3.80;;;20.90;92.40;;;;;;4986124;28;20201;-66
2023/06/04 08:26:21;;;;;;;9.80;3.10;;;21.10;92.30;;;;;;4986026;28;20216;-65
2023/06/04 08:28:51;;;;;;;5.97;3.20;;;21.30;91.90;;;;;;4986426;28;20273;-65
2023/06/04 08:31:16;;;;;;;4.73;3.33;;;21.40;91.50;;;;;;4986428;28;20680;-67
2023/06/04 08:33:44;;;;;;;4.43;3.03;;;21.60;91.50;;;;;;4986490;28;20456;-64
2023/06/04 08:36:10;;;;;;;4.17;2.90;;;21.70;90.90;;;;;;4986789;28;20717;-65
2023/06/04 08:38:35;;;;;;;3.27;2.70;;;21.90;89.50;;;;;;4986648;28;20491;-65
2023/06/04 08:41:09;;;;;;;7.73;2.87;;;22.20;89.20;;;;;;4986620;28;20248;-64
2023/06/04 08:43:38;;;;;;;5.20;3.10;;;22.30;85.50;;;;;;4986714;28;20234;-65
2023/06/04 08:46:08;;;;;;;3.63;2.80;;;22.40;87.80;;;;;;4986740;28;20478;-65
2023/06/04 08:48:35;;;;;;;4.70;3.80;;;22.70;88.10;;;;;;4986681;28;20437;-64
2023/06/04 08:51:02;;;;;;;5.10;3.20;;;23.10;84.80;;;;;;4984494;28;20602;-64
2023/06/04 08:53:30;;;;;;;9.23;3.50;;;23.20;84.30;;;;;;4986509;28;20423;-65
2023/06/04 08:55:56;;;;;;;6.27;3.33;;;23.40;84.70;;;;;;4986662;28;20423;-65
2023/06/04 08:58:22;;;;;;;6.63;3.30;;;23.40;82.40;;;;;;4986361;28;20469;-64
2023/06/04 09:00:48;;;;;;;8.20;3.30;;;23.80;80.80;;;;;;4986543;28;20426;-64
2023/06/04 09:03:15;;;;;;;6.90;2.87;;;23.80;79.10;;;;;;4986641;28;20476;-64
2023/06/04 09:05:47;;;;;;;6.37;3.60;;;24.00;79.60;;;;;;4986405;28;20198;-63
2023/06/04 09:08:16;;;;;;;3.97;3.00;;;24.30;81.40;;;;;;4986064;28;20448;-63
2023/06/04 09:10:44;;;;;;;5.00;3.30;;;24.60;78.20;;;;;;4986452;28;20437;-64
2023/06/04 09:13:11;;;;;;;6.07;3.60;;;24.60;76.60;;;;;;4986301;28;20523;-64
2023/06/04 09:15:36;;;;;;;10.83;4.20;;;24.70;76.90;;;;;;4986147;28;20450;-64
2023/06/04 09:18:02;;;;;;;3.50;2.70;;;24.90;76.20;;;;;;4986132;28;20441;-64
2023/06/04 09:20:28;;;;;;;7.50;3.43;;;25.10;76.30;;;;;;4985545;28;20254;-64
2023/06/04 09:22:54;;;;;;;4.00;3.50;;;25.30;73.80;;;;;;4985536;28;20228;-63
2023/06/04 09:25:25;;;;;;;6.77;5.20;;;25.60;73.40;;;;;;4985524;28;20202;-64
2023/06/04 09:27:52;;;;;;;9.60;4.93;;;25.80;72.20;;;;;;4985324;28;20251;-64
2023/06/04 09:30:17;;;;;;;7.47;5.80;;;25.90;70.20;;;;;;4985270;28;20428;-65
2023/06/04 09:32:43;;;;;;;13.70;4.70;;;26.20;70.30;;;;;;4985343;28;20762;-64
2023/06/04 09:35:18;;;;;;;5.47;3.40;;;26.40;69.10;;;;;;4985342;28;20675;-67
2023/06/04 09:37:57;;;;;;;7.73;4.20;;;26.30;68.20;;;;;;4985188;28;20203;-67
2023/06/04 09:40:23;;;;;;;6.53;3.60;;;26.20;67.70;;;;;;4985349;28;20482;-67
2023/06/04 09:42:54;;;;;;;8.90;3.37;;;26.40;66.50;;;;;;4983720;28;20521;-67
2023/06/04 09:45:34;;;;;;;4.47;4.00;;;26.60;66.40;;;;;;4985426;28;20448;-67
2023/06/04 09:48:00;;;;;;;4.30;3.77;;;26.70;66.70;;;;;;4985281;28;20536;-65
2023/06/04 09:50:27;;;;;;;5.80;3.83;;;26.80;66.40;;;;;;4985493;28;20420;-65
2023/06/04 09:52:54;;;;;;;7.20;4.20;;;27.00;64.20;;;;;;4985478;28;20433;-65
2023/06/04 09:55:19;;;;;;;4.77;4.13;;;27.30;65.30;;;;;;4985459;28;20436;-66
2023/06/04 09:57:52;;;;;;;7.40;4.40;;;27.40;64.50;;;;;;4985741;28;20452;-66
2023/06/04 10:00:21;;;;;;;6.30;4.03;;;27.70;64.10;;;;;;4985680;28;20189;-65
2023/06/04 10:02:47;;;;;;;6.80;3.60;;;27.60;65.00;;;;;;4985640;28;20484;-64
2023/06/04 10:05:14;;;;;;;10.10;4.00;;;27.60;64.00;;;;;;4988812;28;20447;-64
2023/06/04 10:07:44;;;;;;;9.90;4.70;;;27.70;62.90;;;;;;4989028;28;20913;-65
2023/06/04 10:10:17;;;;;;;4.53;3.37;;;27.90;62.20;;;;;;4989019;28;20421;-64
2023/06/04 10:12:45;;;;;;;3.77;3.47;;;28.00;63.40;;;;;;4988965;28;20431;-65
2023/06/04 10:15:12;;;;;;;7.10;4.13;;;28.20;59.50;;;;;;4988962;28;20429;-65
2023/06/04 10:17:39;;;;;;;4.87;3.50;;;28.10;60.00;;;;;;4989291;28;20421;-66
2023/06/04 10:20:05;;;;;;;5.33;3.70;;;28.20;59.10;;;;;;4988772;28;20428;-66
2023/06/04 10:22:32;;;;;;;6.90;3.50;;;28.50;59.10;;;;;;4988499;28;20464;-66
2023/06/04 10:25:03;;;;;;;3.90;3.60;;;28.70;59.00;;;;;;4988758;28;20436;-65
2023/06/04 10:27:31;;;;;;;5.73;3.97;;;29.00;58.40;;;;;;4988544;28;20513;-65
2023/06/04 10:29:58;;;;;;;9.70;3.77;;;29.10;57.00;;;;;;4988634;28;20413;-65
2023/06/04 10:32:27;;;;;;;7.40;4.37;;;29.20;57.00;;;;;;4988685;28;20432;-65
2023/06/04 10:34:53;;;;;;;5.80;4.30;;;29.00;57.60;;;;;;4988599;28;20413;-66
2023/06/04 10:37:23;;;;;;;8.27;4.60;;;28.40;54.70;;;;;;4988573;28;20493;-65
2023/06/04 10:39:53;;;;;;;5.00;4.00;;;27.40;56.90;;;;;;4988556;28;20432;-64
2023/06/04 10:42:21;;;;;;;9.03;4.30;;;27.60;58.50;;;;;;4987940;28;20485;-65
2023/06/04 10:44:48;;;;;;;4.50;4.10;;;27.90;57.50;;;;;;4987663;28;20417;-65
2023/06/04 10:47:29;;;;;;;5.07;3.83;;;28.40;56.10;;;;;;4986628;28;20457;-64
2023/06/04 10:49:55;;;;;;;5.57;3.87;;;28.80;56.50;;;;;;4988365;28;20480;-65
2023/06/04 10:52:23;;;;;;;6.03;4.70;;;28.80;54.80;;;;;;4988314;28;20913;-65
2023/06/04 10:54:51;;;;;;;6.00;4.43;;;28.70;55.80;;;;;;4988435;28;20436;-65
2023/06/04 10:57:18;;;;;;;7.77;4.50;;;28.40;55.70;;;;;;4988127;28;20475;-64
2023/06/04 10:59:57;;;;;;;7.13;4.10;;;28.50;57.80;;;;;;4987970;28;20444;-68
2023/06/04 11:02:22;;;;;;;12.43;4.70;;;28.50;56.00;;;;;;4987902;28;20479;-68
2023/06/04 11:05:05;;;;;;;10.67;4.60;;;28.10;55.90;;;;;;4987813;28;20448;-67
2023/06/04 11:07:44;;;;;;;5.57;3.80;;;28.10;58.40;;;;;;4986304;28;20197;-66
2023/06/04 11:10:11;;;;;;;8.07;4.30;;;28.10;57.70;;;;;;4988267;28;21062;-67
2023/06/04 11:12:47;;;;;;;6.30;4.33;;;28.10;56.80;;;;;;4987842;28;20432;-68
2023/06/04 11:15:14;;;;;;;7.57;4.40;;;28.10;55.90;;;;;;4987304;28;20412;-67
2023/06/04 11:17:51;;;;;;;5.53;4.10;;;27.60;55.40;;;;;;4987638;28;20492;-68
2023/06/04 11:20:18;;;;;;;5.23;4.00;;;27.20;57.10;;;;;;4987673;28;20445;-68
2023/06/04 11:22:54;;;;;;;13.93;4.77;;;26.80;55.20;;;;;;4986090;28;20514;-69
2023/06/04 11:25:22;;;;;;;7.77;4.70;;;26.70;57.80;;;;;;4987668;28;20500;-68
2023/06/04 11:27:48;;;;;;;6.23;4.70;;;26.90;56.50;;;;;;4987688;28;20444;-69
2023/06/04 11:30:14;;;;;;;5.23;4.30;;;27.00;57.20;;;;;;4987370;28;20417;-69
2023/06/04 11:32:40;;;;;;;6.07;4.53;;;26.60;55.30;;;;;;4987225;28;20429;-70
2023/06/04 11:35:07;;;;;;;5.37;4.10;;;26.20;57.10;;;;;;4987142;28;20505;-70
2023/06/04 11:37:33;;;;;;;7.30;4.53;;;26.40;56.50;;;;;;4988037;28;20678;-70
2023/06/04 11:40:00;;;;;;;5.47;4.10;;;26.50;56.00;;;;;;4987237;28;20423;-67
2023/06/04 11:42:27;;;;;;;6.40;4.50;;;26.70;57.20;;;;;;4985628;28;21055;-69
2023/06/04 11:44:59;;;;;;;7.83;4.37;;;26.90;57.00;;;;;;4987324;28;20417;-68
2023/06/04 11:47:25;;;;;;;5.77;4.27;;;27.00;56.60;;;;;;4987001;28;20475;-69
2023/06/04 11:49:58;;;;;;;6.43;4.23;;;27.00;59.20;;;;;;4987307;28;20415;-68
2023/06/04 11:52:23;;;;;;;5.97;4.87;;;27.20;56.30;;;;;;4987307;28;20425;-69
2023/06/04 11:54:49;;;;;;;9.60;4.83;;;27.30;57.50;;;;;;4987437;28;20486;-65
2023/06/04 11:57:15;;;;;;;5.77;4.90;;;27.30;55.10;;;;;;4987354;28;20685;-70
2023/06/04 11:59:41;;;;;;;8.10;4.43;;;27.40;56.10;;;;;;4987474;28;20482;-67
2023/06/04 12:02:07;;;;;;;5.87;4.60;;;27.30;55.10;;;;;;4987291;28;21033;-66
2023/06/04 12:04:33;;;;;;;7.83;4.60;;;27.20;54.60;;;;;;4987350;28;20432;-68
2023/06/04 12:07:02;;;;;;;4.90;3.97;;;27.20;54.10;;;;;;4987556;28;20429;-70
2023/06/04 12:09:35;;;;;;;7.67;5.10;;;27.10;55.20;;;;;;4985726;28;20718;-69
2023/06/04 12:12:01;;;;;;;7.73;4.93;;;27.00;56.30;;;;;;4987305;28;20425;-66
2023/06/04 12:14:27;;;;;;;11.53;5.70;;;27.10;55.20;;;;;;4987134;28;20474;-66
2023/06/04 12:17:06;;;;;;;6.90;4.83;;;27.30;55.60;;;;;;4987453;28;20984;-66
2023/06/04 12:19:33;;;;;;;5.87;5.03;;;27.20;56.00;;;;;;4987212;28;20441;-65
2023/06/04 12:22:07;;;;;;;6.23;4.87;;;27.10;54.70;;;;;;4986954;28;21137;-66
2023/06/04 12:24:54;;;;;;;7.23;4.87;;;27.00;53.90;;;;;;4986870;28;20418;-68
2023/06/04 12:27:25;;;;;;;4.80;4.40;;;26.90;55.60;;;;;;4986199;28;20428;-68
2023/06/04 12:29:57;;;;;;;4.97;4.37;;;27.00;53.20;;;;;;4987275;28;20402;-68
2023/06/04 12:32:22;;;;;;;5.53;4.93;;;27.10;53.70;;;;;;4987208;28;20833;-67
2023/06/04 12:34:48;;;;;;;5.53;4.03;;;27.30;53.10;;;;;;4986923;28;20417;-67
2023/06/04 12:37:14;;;;;;;5.50;4.60;;;27.30;52.50;;;;;;4986701;28;20216;-67
2023/06/04 12:39:39;;;;;;;6.50;5.00;;;27.30;53.30;;;;;;4986428;28;21012;-69
2023/06/04 12:42:07;;;;;;;7.23;5.20;;;27.40;54.40;;;;;;4986184;28;20229;-68
2023/06/04 12:44:33;;;;;;;5.47;4.40;;;27.10;54.70;;;;;;4986201;28;20559;-67
2023/06/04 12:46:58;;;;;;;5.90;4.67;;;27.10;53.80;;;;;;4986232;28;20409;-67